createdAt,value
2018-12-15T00:00:31.620Z,1001.86
2018-12-15T00:01:31.593Z,1001.87
2018-12-15T00:02:31.573Z,1001.86
2018-12-15T00:03:31.564Z,1001.82
2018-12-15T00:04:31.515Z,1001.84
2018-12-15T00:05:31.493Z,1001.83
2018-12-15T00:06:31.474Z,1001.87
2018-12-15T00:07:31.448Z,1001.84
2018-12-15T00:08:31.419Z,1001.90
2018-12-15T00:09:31.395Z,1001.89
2018-12-15T00:10:31.375Z,1001.89
2018-12-15T00:11:31.342Z,1001.92
2018-12-15T00:12:31.310Z,1001.94
2018-12-15T00:13:31.294Z,1001.98
2018-12-15T00:14:31.299Z,1001.91
2018-12-15T00:15:31.240Z,1001.96
2018-12-15T00:16:31.221Z,1001.93
2018-12-15T00:17:31.195Z,1001.97
2018-12-15T00:18:31.166Z,1001.97
2018-12-15T00:19:31.141Z,1001.98
2018-12-15T00:20:31.118Z,1002.01
2018-12-15T00:21:31.092Z,1001.98
2018-12-15T00:22:31.070Z,1002.03
2018-12-15T00:23:31.044Z,1002.05
2018-12-15T00:24:31.025Z,1002.09
2018-12-15T00:25:30.987Z,1002.06
2018-12-15T00:26:30.968Z,1002.08
2018-12-15T00:27:30.937Z,1002.06
2018-12-15T00:28:30.918Z,1002.01
2018-12-15T00:29:30.893Z,1002.08
2018-12-15T00:30:30.870Z,1002.03
2018-12-15T00:31:30.844Z,1001.99
2018-12-15T00:32:30.818Z,1002.05
2018-12-15T00:33:30.790Z,1002.02
2018-12-15T00:34:30.764Z,1002.02
2018-12-15T00:35:30.746Z,1002.05
2018-12-15T00:36:30.717Z,1002.05
2018-12-15T00:37:30.695Z,1002.05
2018-12-15T00:38:30.665Z,1002.03
2018-12-15T00:39:30.641Z,1002.07
2018-12-15T00:40:30.614Z,1002.11
2018-12-15T00:41:30.592Z,1002.03
2018-12-15T00:42:30.566Z,1002.00
2018-12-15T00:43:30.545Z,1002.04
2018-12-15T00:44:30.519Z,1002.07
2018-12-15T00:45:30.489Z,1002.09
2018-12-15T00:46:30.466Z,1002.08
2018-12-15T00:47:30.436Z,1002.11
2018-12-15T00:48:30.411Z,1002.12
2018-12-15T00:49:30.392Z,1002.11
2018-12-15T00:50:30.366Z,1002.12
2018-12-15T00:51:30.345Z,1002.15
2018-12-15T00:52:30.315Z,1002.12
2018-12-15T00:53:30.289Z,1002.18
2018-12-15T00:54:30.264Z,1002.17
2018-12-15T00:55:30.242Z,1002.18
2018-12-15T00:56:30.216Z,1002.19
2018-12-15T00:57:30.188Z,1002.18
2018-12-15T00:58:30.170Z,1002.20
2018-12-15T00:59:30.138Z,1002.20
2018-12-15T01:00:30.115Z,1002.21
2018-12-15T01:01:30.090Z,1002.20
2018-12-15T01:02:30.069Z,1002.21
2018-12-15T01:03:30.042Z,1002.25
2018-12-15T01:04:30.013Z,1002.25
2018-12-15T01:05:29.987Z,1002.25
2018-12-15T01:06:29.965Z,1002.25
2018-12-15T01:07:29.940Z,1002.29
2018-12-15T01:08:29.915Z,1002.29
2018-12-15T01:09:29.892Z,1002.32
2018-12-15T01:10:29.866Z,1002.29
2018-12-15T01:11:29.847Z,1002.36
2018-12-15T01:12:29.812Z,1002.30
2018-12-15T01:13:29.790Z,1002.36
2018-12-15T01:14:29.760Z,1002.38
2018-12-15T01:15:29.741Z,1002.36
2018-12-15T01:16:29.715Z,1002.38
2018-12-15T01:17:29.690Z,1002.39
2018-12-15T01:18:29.667Z,1002.41
2018-12-15T01:19:29.636Z,1002.39
2018-12-15T01:20:29.613Z,1002.38
2018-12-15T01:21:29.591Z,1002.39
2018-12-15T01:22:29.563Z,1002.39
2018-12-15T01:23:29.559Z,1002.44
2018-12-15T01:24:29.515Z,1002.44
2018-12-15T01:25:29.486Z,1002.42
2018-12-15T01:26:29.464Z,1002.41
2018-12-15T01:27:29.432Z,1002.46
2018-12-15T01:28:29.417Z,1002.50
2018-12-15T01:29:29.384Z,1002.47
2018-12-15T01:30:29.368Z,1002.53
2018-12-15T01:31:29.345Z,1002.52
2018-12-15T01:32:29.314Z,1002.53
2018-12-15T01:33:29.287Z,1002.50
2018-12-15T01:34:29.261Z,1002.51
2018-12-15T01:35:29.239Z,1002.50
2018-12-15T01:36:29.211Z,1002.52
2018-12-15T01:37:29.185Z,1002.50
2018-12-15T01:38:29.162Z,1002.51
2018-12-15T01:39:29.137Z,1002.54
2018-12-15T01:40:29.114Z,1002.56
2018-12-15T01:41:29.107Z,1002.53
2018-12-15T01:42:29.065Z,1002.57
2018-12-15T01:43:29.042Z,1002.56
2018-12-15T01:44:29.005Z,1002.57
2018-12-15T01:45:28.979Z,1002.58
2018-12-15T01:46:28.954Z,1002.61
2018-12-15T01:47:28.940Z,1002.62
2018-12-15T01:48:28.912Z,1002.62
2018-12-15T01:49:28.887Z,1002.60
2018-12-15T01:50:28.865Z,1002.63
2018-12-15T01:51:28.838Z,1002.63
2018-12-15T01:52:28.806Z,1002.63
2018-12-15T01:53:28.788Z,1002.60
2018-12-15T01:54:28.762Z,1002.66
2018-12-15T01:55:28.736Z,1002.71
2018-12-15T01:56:28.722Z,1002.71
2018-12-15T01:57:28.698Z,1002.68
2018-12-15T01:58:28.659Z,1002.67
2018-12-15T01:59:28.630Z,1002.71
2018-12-15T02:00:28.611Z,1002.75
2018-12-15T02:01:28.583Z,1002.68
2018-12-15T02:02:28.559Z,1002.67
2018-12-15T02:03:28.536Z,1002.66
2018-12-15T02:04:28.514Z,1002.67
2018-12-15T02:05:28.485Z,1002.71
2018-12-15T02:06:28.466Z,1002.67
2018-12-15T02:07:28.434Z,1002.68
2018-12-15T02:08:28.411Z,1002.68
2018-12-15T02:09:28.388Z,1002.71
2018-12-15T02:10:28.361Z,1002.70
2018-12-15T02:11:28.332Z,1002.69
2018-12-15T02:12:28.316Z,1002.71
2018-12-15T02:13:28.284Z,1002.67
2018-12-15T02:14:28.257Z,1002.69
2018-12-15T02:15:28.240Z,1002.68
2018-12-15T02:16:28.211Z,1002.70
2018-12-15T02:17:33.607Z,1002.68
2018-12-15T02:18:28.160Z,1002.66
2018-12-15T02:19:28.136Z,1002.63
2018-12-15T02:20:28.136Z,1002.62
2018-12-15T02:21:28.086Z,1002.64
2018-12-15T02:22:28.060Z,1002.65
2018-12-15T02:23:28.035Z,1002.60
2018-12-15T02:24:28.008Z,1002.60
2018-12-15T02:25:27.978Z,1002.56
2018-12-15T02:26:27.960Z,1002.61
2018-12-15T02:27:27.934Z,1002.64
2018-12-15T02:28:27.910Z,1002.65
2018-12-15T02:29:27.887Z,1002.65
2018-12-15T02:30:27.875Z,1002.67
2018-12-15T02:31:27.841Z,1002.66
2018-12-15T02:32:27.808Z,1002.64
2018-12-15T02:33:27.782Z,1002.64
2018-12-15T02:34:27.758Z,1002.65
2018-12-15T02:35:27.730Z,1002.64
2018-12-15T02:36:27.724Z,1002.63
2018-12-15T02:37:27.683Z,1002.64
2018-12-15T02:38:27.656Z,1002.66
2018-12-15T02:39:27.641Z,1002.65
2018-12-15T02:40:27.608Z,1002.67
2018-12-15T02:41:27.579Z,1002.61
2018-12-15T02:42:27.555Z,1002.67
2018-12-15T02:43:27.532Z,1002.65
2018-12-15T02:44:27.507Z,1002.66
2018-12-15T02:45:27.480Z,1002.66
2018-12-15T02:46:27.458Z,1002.71
2018-12-15T02:47:27.432Z,1002.70
2018-12-15T02:48:27.403Z,1002.68
2018-12-15T02:49:27.375Z,1002.70
2018-12-15T02:50:27.367Z,1002.72
2018-12-15T02:51:27.330Z,1002.76
2018-12-15T02:52:27.308Z,1002.73
2018-12-15T02:53:27.282Z,1002.74
2018-12-15T02:54:27.256Z,1002.76
2018-12-15T02:55:27.230Z,1002.79
2018-12-15T02:56:27.202Z,1002.77
2018-12-15T02:57:27.182Z,1002.78
2018-12-15T02:58:27.157Z,1002.76
2018-12-15T02:59:27.132Z,1002.77
2018-12-15T03:00:27.108Z,1002.79
2018-12-15T03:01:27.071Z,1002.80
2018-12-15T03:02:27.053Z,1002.78
2018-12-15T03:03:27.030Z,1002.77
2018-12-15T03:04:27.001Z,1002.78
2018-12-15T03:05:26.979Z,1002.77
2018-12-15T03:06:26.956Z,1002.80
2018-12-15T03:07:26.931Z,1002.82
2018-12-15T03:08:26.901Z,1002.81
2018-12-15T03:09:26.876Z,1002.82
2018-12-15T03:10:26.855Z,1002.85
2018-12-15T03:11:26.827Z,1002.85
2018-12-15T03:12:26.806Z,1002.84
2018-12-15T03:13:26.779Z,1002.83
2018-12-15T03:14:26.757Z,1002.85
2018-12-15T03:15:26.724Z,1002.87
2018-12-15T03:16:26.706Z,1002.86
2018-12-15T03:17:26.677Z,1002.88
2018-12-15T03:18:26.653Z,1002.87
2018-12-15T03:19:26.629Z,1002.90
2018-12-15T03:20:26.606Z,1002.91
2018-12-15T03:21:26.572Z,1002.89
2018-12-15T03:22:26.555Z,1002.89
2018-12-15T03:23:26.528Z,1002.87
2018-12-15T03:24:26.506Z,1002.84
2018-12-15T03:25:26.478Z,1002.91
2018-12-15T03:26:26.449Z,1002.91
2018-12-15T03:27:26.429Z,1002.93
2018-12-15T03:28:26.400Z,1002.95
2018-12-15T03:29:26.376Z,1002.94
2018-12-15T03:30:26.351Z,1002.95
2018-12-15T03:31:26.325Z,1002.97
2018-12-15T03:32:26.302Z,1002.94
2018-12-15T03:33:26.280Z,1002.92
2018-12-15T03:34:26.247Z,1002.92
2018-12-15T03:35:26.221Z,1002.91
2018-12-15T03:36:26.202Z,1002.94
2018-12-15T03:37:26.178Z,1002.97
2018-12-15T03:38:26.147Z,1002.95
2018-12-15T03:39:26.128Z,1002.96
2018-12-15T03:40:26.101Z,1002.93
2018-12-15T03:41:26.085Z,1002.95
2018-12-15T03:42:26.050Z,1002.93
2018-12-15T03:43:26.026Z,1002.94
2018-12-15T03:44:25.999Z,1002.98
2018-12-15T03:45:25.974Z,1003.02
2018-12-15T03:46:25.942Z,1003.04
2018-12-15T03:47:25.923Z,1003.02
2018-12-15T03:48:25.898Z,1003.03
2018-12-15T03:49:25.875Z,1002.97
2018-12-15T03:50:25.853Z,1002.99
2018-12-15T03:51:25.828Z,1002.95
2018-12-15T03:52:25.795Z,1002.98
2018-12-15T03:53:25.770Z,1002.96
2018-12-15T03:54:25.750Z,1002.96
2018-12-15T03:55:25.722Z,1002.97
2018-12-15T03:56:25.697Z,1002.96
2018-12-15T03:57:25.676Z,1002.96
2018-12-15T03:58:25.654Z,1003.01
2018-12-15T03:59:25.620Z,1003.02
2018-12-15T04:00:25.601Z,1002.99
2018-12-15T04:01:25.572Z,1003.04
2018-12-15T04:02:25.542Z,1003.05
2018-12-15T04:03:25.532Z,1003.01
2018-12-15T04:04:25.497Z,1003.00
2018-12-15T04:05:25.470Z,1003.05
2018-12-15T04:06:25.449Z,1003.00
2018-12-15T04:07:25.426Z,1002.99
2018-12-15T04:08:25.396Z,1003.01
2018-12-15T04:09:25.371Z,1003.00
2018-12-15T04:10:25.352Z,1003.00
2018-12-15T04:11:25.319Z,1003.04
2018-12-15T04:12:25.300Z,1003.09
2018-12-15T04:13:25.263Z,1003.07
2018-12-15T04:14:25.247Z,1003.09
2018-12-15T04:15:25.230Z,1003.06
2018-12-15T04:16:25.194Z,1003.08
2018-12-15T04:17:25.162Z,1003.09
2018-12-15T04:18:25.147Z,1003.06
2018-12-15T04:19:25.120Z,1003.09
2018-12-15T04:20:25.095Z,1003.05
2018-12-15T04:21:25.071Z,1003.08
2018-12-15T04:22:25.054Z,1003.05
2018-12-15T04:23:25.024Z,1003.07
2018-12-15T04:24:24.992Z,1003.07
2018-12-15T04:25:24.966Z,1003.04
2018-12-15T04:26:24.944Z,1003.06
2018-12-15T04:27:24.921Z,1003.05
2018-12-15T04:28:24.896Z,1003.05
2018-12-15T04:29:24.866Z,1003.03
2018-12-15T04:30:24.845Z,1002.98
2018-12-15T04:31:24.819Z,1002.99
2018-12-15T04:32:24.798Z,1003.00
2018-12-15T04:33:24.767Z,1002.93
2018-12-15T04:34:24.746Z,1002.95
2018-12-15T04:35:24.724Z,1002.98
2018-12-15T04:36:24.685Z,1002.95
2018-12-15T04:37:24.669Z,1002.95
2018-12-15T04:38:24.640Z,1002.89
2018-12-15T04:39:24.617Z,1002.89
2018-12-15T04:40:24.612Z,1002.90
2018-12-15T04:41:24.563Z,1002.89
2018-12-15T04:42:24.541Z,1002.86
2018-12-15T04:43:24.522Z,1002.89
2018-12-15T04:44:24.492Z,1002.87
2018-12-15T04:45:24.471Z,1002.87
2018-12-15T04:46:24.444Z,1002.88
2018-12-15T04:47:24.414Z,1002.87
2018-12-15T04:48:24.393Z,1002.83
2018-12-15T04:49:24.366Z,1002.85
2018-12-15T04:50:24.345Z,1002.82
2018-12-15T04:51:24.313Z,1002.78
2018-12-15T04:52:24.290Z,1002.78
2018-12-15T04:53:24.268Z,1002.75
2018-12-15T04:54:24.239Z,1002.75
2018-12-15T04:55:24.213Z,1002.77
2018-12-15T04:56:24.188Z,1002.74
2018-12-15T04:57:24.168Z,1002.76
2018-12-15T04:58:24.143Z,1002.76
2018-12-15T04:59:24.120Z,1002.74
2018-12-15T05:00:24.088Z,1002.73
2018-12-15T05:01:24.062Z,1002.71
2018-12-15T05:02:24.037Z,1002.75
2018-12-15T05:03:24.015Z,1002.75
2018-12-15T05:04:23.992Z,1002.72
2018-12-15T05:05:23.960Z,1002.75
2018-12-15T05:06:23.934Z,1002.74
2018-12-15T05:07:23.918Z,1002.72
2018-12-15T05:08:23.896Z,1002.72
2018-12-15T05:09:23.859Z,1002.70
2018-12-15T05:10:23.832Z,1002.70
2018-12-15T05:11:23.816Z,1002.68
2018-12-15T05:12:23.784Z,1002.65
2018-12-15T05:13:23.760Z,1002.62
2018-12-15T05:14:23.739Z,1002.65
2018-12-15T05:15:23.717Z,1002.63
2018-12-15T05:16:23.684Z,1002.64
2018-12-15T05:17:23.657Z,1002.61
2018-12-15T05:18:23.637Z,1002.63
2018-12-15T05:19:23.610Z,1002.65
2018-12-15T05:20:23.583Z,1002.64
2018-12-15T05:21:23.556Z,1002.66
2018-12-15T05:22:23.535Z,1002.71
2018-12-15T05:23:23.510Z,1002.70
2018-12-15T05:24:23.482Z,1002.72
2018-12-15T05:25:23.460Z,1002.69
2018-12-15T05:26:23.438Z,1002.69
2018-12-15T05:27:23.405Z,1002.68
2018-12-15T05:28:23.380Z,1002.70
2018-12-15T05:29:23.352Z,1002.65
2018-12-15T05:30:23.333Z,1002.65
2018-12-15T05:31:23.309Z,1002.70
2018-12-15T05:32:23.284Z,1002.69
2018-12-15T05:33:23.257Z,1002.71
2018-12-15T05:34:23.230Z,1002.71
2018-12-15T05:35:23.208Z,1002.74
2018-12-15T05:36:23.183Z,1002.73
2018-12-15T05:37:23.160Z,1002.72
2018-12-15T05:38:23.132Z,1002.73
2018-12-15T05:39:23.102Z,1002.70
2018-12-15T05:40:23.082Z,1002.69
2018-12-15T05:41:23.054Z,1002.72
2018-12-15T05:42:23.029Z,1002.68
2018-12-15T05:43:23.006Z,1002.68
2018-12-15T05:44:22.985Z,1002.68
2018-12-15T05:45:22.953Z,1002.74
2018-12-15T05:46:22.960Z,1002.66
2018-12-15T05:47:22.940Z,1002.70
2018-12-15T05:48:25.393Z,1002.72
2018-12-15T05:49:22.861Z,1002.77
2018-12-15T05:50:22.832Z,1002.76
2018-12-15T05:51:22.807Z,1002.75
2018-12-15T05:52:22.781Z,1002.76
2018-12-15T05:53:22.753Z,1002.77
2018-12-15T05:54:22.724Z,1002.80
2018-12-15T05:55:22.705Z,1002.84
2018-12-15T05:56:22.680Z,1002.82
2018-12-15T05:57:22.650Z,1002.81
2018-12-15T05:58:22.628Z,1002.83
2018-12-15T05:59:22.600Z,1002.83
2018-12-15T06:00:22.571Z,1002.83
2018-12-15T06:01:22.554Z,1002.80
2018-12-15T06:02:22.526Z,1002.82
2018-12-15T06:03:22.506Z,1002.81
2018-12-15T06:04:22.477Z,1002.81
2018-12-15T06:05:22.451Z,1002.82
2018-12-15T06:06:22.422Z,1002.80
2018-12-15T06:07:22.404Z,1002.82
2018-12-15T06:08:22.378Z,1002.81
2018-12-15T06:09:22.354Z,1002.82
2018-12-15T06:10:22.325Z,1002.81
2018-12-15T06:11:22.302Z,1002.83
2018-12-15T06:12:22.277Z,1002.84
2018-12-15T06:13:22.251Z,1002.85
2018-12-15T06:14:22.231Z,1002.87
2018-12-15T06:15:22.203Z,1002.93
2018-12-15T06:16:22.174Z,1002.90
2018-12-15T06:17:22.142Z,1002.89
2018-12-15T06:18:22.126Z,1002.92
2018-12-15T06:19:22.100Z,1002.92
2018-12-15T06:20:22.078Z,1002.87
2018-12-15T06:21:22.052Z,1002.87
2018-12-15T06:22:22.030Z,1002.89
2018-12-15T06:23:22.002Z,1002.89
2018-12-15T06:24:21.973Z,1002.90
2018-12-15T06:25:21.949Z,1002.91
2018-12-15T06:26:21.927Z,1002.94
2018-12-15T06:27:21.902Z,1002.92
2018-12-15T06:28:21.937Z,1002.91
2018-12-15T06:29:21.847Z,1002.91
2018-12-15T06:30:21.821Z,1002.92
2018-12-15T06:31:21.801Z,1002.95
2018-12-15T06:32:21.827Z,1002.95
2018-12-15T06:33:21.770Z,1002.94
2018-12-15T06:34:21.724Z,1002.93
2018-12-15T06:35:21.705Z,1002.92
2018-12-15T06:36:21.670Z,1002.91
2018-12-15T06:37:21.649Z,1002.93
2018-12-15T06:38:21.641Z,1002.92
2018-12-15T06:39:21.603Z,1002.92
2018-12-15T06:40:21.574Z,1002.90
2018-12-15T06:41:21.542Z,1002.89
2018-12-15T06:42:21.533Z,1002.85
2018-12-15T06:43:21.498Z,1002.87
2018-12-15T06:44:21.472Z,1002.87
2018-12-15T06:45:21.449Z,1002.90
2018-12-15T06:46:21.430Z,1002.88
2018-12-15T06:47:21.435Z,1002.89
2018-12-15T06:48:21.372Z,1002.93
2018-12-15T06:49:21.339Z,1002.95
2018-12-15T06:50:21.320Z,1002.94
2018-12-15T06:51:21.313Z,1002.94
2018-12-15T06:52:21.268Z,1002.93
2018-12-15T06:53:21.243Z,1002.95
2018-12-15T06:54:21.217Z,1002.95
2018-12-15T06:55:21.195Z,1002.94
2018-12-15T06:56:21.169Z,1002.98
2018-12-15T06:57:21.147Z,1002.96
2018-12-15T06:58:21.122Z,1002.98
2018-12-15T06:59:21.108Z,1003.03
2018-12-15T07:00:21.064Z,1003.02
2018-12-15T07:01:21.045Z,1002.99
2018-12-15T07:02:21.019Z,1003.01
2018-12-15T07:03:21.003Z,1002.99
2018-12-15T07:04:20.965Z,1003.00
2018-12-15T07:05:20.941Z,1002.94
2018-12-15T07:06:20.927Z,1003.00
2018-12-15T07:07:20.901Z,1003.00
2018-12-15T07:08:20.867Z,1003.01
2018-12-15T07:09:20.843Z,1003.04
2018-12-15T07:10:20.821Z,1003.04
2018-12-15T07:11:20.795Z,1003.05
2018-12-15T07:12:20.764Z,1003.05
2018-12-15T07:13:20.742Z,1003.13
2018-12-15T07:14:20.715Z,1003.07
2018-12-15T07:15:20.690Z,1003.07
2018-12-15T07:16:20.701Z,1003.08
2018-12-15T07:17:20.639Z,1003.12
2018-12-15T07:18:20.620Z,1003.08
2018-12-15T07:19:20.585Z,1003.06
2018-12-15T07:20:20.566Z,1003.12
2018-12-15T07:21:20.548Z,1003.09
2018-12-15T07:22:20.512Z,1003.11
2018-12-15T07:23:20.486Z,1003.08
2018-12-15T07:24:20.466Z,1003.07
2018-12-15T07:25:20.436Z,1003.08
2018-12-15T07:26:20.410Z,1003.06
2018-12-15T07:27:20.414Z,1003.05
2018-12-15T07:28:20.365Z,1003.09
2018-12-15T07:29:20.395Z,1003.10
2018-12-15T07:30:20.410Z,1003.07
2018-12-15T07:31:20.388Z,1003.09
2018-12-15T07:32:20.558Z,1003.08
2018-12-15T07:33:20.423Z,1003.07
2018-12-15T07:34:20.519Z,1003.10
2018-12-15T07:35:24.247Z,1003.09
2018-12-15T07:36:20.292Z,1003.10
2018-12-15T07:37:20.264Z,1003.14
2018-12-15T07:38:20.331Z,1003.12
2018-12-15T07:39:20.287Z,1003.16
2018-12-15T07:40:20.102Z,1003.16
2018-12-15T07:41:20.099Z,1003.22
2018-12-15T07:42:20.063Z,1003.20
2018-12-15T07:43:20.051Z,1003.18
2018-12-15T07:44:20.023Z,1003.18
2018-12-15T07:45:19.993Z,1003.13
2018-12-15T07:46:20.008Z,1003.12
2018-12-15T07:47:19.971Z,1003.11
2018-12-15T07:48:19.895Z,1003.12
2018-12-15T07:49:20.004Z,1003.11
2018-12-15T07:50:20.152Z,1003.15
2018-12-15T07:51:19.925Z,1003.19
2018-12-15T07:52:19.839Z,1003.17
2018-12-15T07:53:19.819Z,1003.19
2018-12-15T07:54:19.754Z,1003.26
2018-12-15T07:55:19.925Z,1003.25
2018-12-15T07:56:19.883Z,1003.26
2018-12-15T07:57:19.762Z,1003.29
2018-12-15T07:58:19.659Z,1003.30
2018-12-15T07:59:19.677Z,1003.34
2018-12-15T08:00:19.588Z,1003.32
2018-12-15T08:01:19.627Z,1003.33
2018-12-15T08:02:19.527Z,1003.27
2018-12-15T08:03:19.639Z,1003.28
2018-12-15T08:04:19.742Z,1003.30
2018-12-15T08:05:19.803Z,1003.24
2018-12-15T08:06:22.839Z,1003.31
2018-12-15T08:07:19.409Z,1003.24
2018-12-15T08:08:19.523Z,1003.26
2018-12-15T08:09:19.698Z,1003.23
2018-12-15T08:10:19.325Z,1003.26
2018-12-15T08:11:19.337Z,1003.24
2018-12-15T08:12:19.399Z,1003.24
2018-12-15T08:13:19.312Z,1003.24
2018-12-15T08:14:19.248Z,1003.23
2018-12-15T08:15:19.203Z,1003.23
2018-12-15T08:16:19.168Z,1003.19
2018-12-15T08:17:19.139Z,1003.21
2018-12-15T08:18:19.145Z,1003.23
2018-12-15T08:19:19.126Z,1003.22
2018-12-15T08:20:20.694Z,1003.23
2018-12-15T08:21:19.194Z,1003.21
2018-12-15T08:22:19.017Z,1003.29
2018-12-15T08:23:19.172Z,1003.24
2018-12-15T08:24:18.992Z,1003.28
2018-12-15T08:25:18.986Z,1003.27
2018-12-15T08:26:18.951Z,1003.25
2018-12-15T08:27:18.901Z,1003.20
2018-12-15T08:28:18.868Z,1003.21
2018-12-15T08:29:18.853Z,1003.24
2018-12-15T08:30:18.825Z,1003.22
2018-12-15T08:31:18.851Z,1003.21
2018-12-15T08:32:18.782Z,1003.26
2018-12-15T08:33:18.792Z,1003.29
2018-12-15T08:34:18.801Z,1003.31
2018-12-15T08:35:18.763Z,1003.34
2018-12-15T08:36:18.687Z,1003.40
2018-12-15T08:37:18.668Z,1003.41
2018-12-15T08:38:18.632Z,1003.38
2018-12-15T08:39:18.587Z,1003.38
2018-12-15T08:40:18.767Z,1003.37
2018-12-15T08:41:18.543Z,1003.40
2018-12-15T08:42:18.671Z,1003.38
2018-12-15T08:43:18.511Z,1003.38
2018-12-15T08:44:18.505Z,1003.35
2018-12-15T08:45:18.434Z,1003.37
2018-12-15T08:46:18.467Z,1003.40
2018-12-15T08:47:18.393Z,1003.37
2018-12-15T08:48:18.473Z,1003.37
2018-12-15T08:49:18.351Z,1003.41
2018-12-15T08:50:18.367Z,1003.43
2018-12-15T08:51:18.319Z,1003.35
2018-12-15T08:52:18.263Z,1003.40
2018-12-15T08:53:18.245Z,1003.39
2018-12-15T08:54:18.253Z,1003.37
2018-12-15T08:55:18.215Z,1003.39
2018-12-15T08:56:18.191Z,1003.38
2018-12-15T08:57:18.148Z,1003.36
2018-12-15T08:58:18.191Z,1003.37
2018-12-15T08:59:18.103Z,1003.38
2018-12-15T09:00:18.080Z,1003.38
2018-12-15T09:01:18.075Z,1003.36
2018-12-15T09:02:18.026Z,1003.37
2018-12-15T09:03:18.048Z,1003.36
2018-12-15T09:04:18.006Z,1003.39
2018-12-15T09:05:17.956Z,1003.39
2018-12-15T09:06:17.918Z,1003.42
2018-12-15T09:07:17.922Z,1003.40
2018-12-15T09:08:18.593Z,1003.40
2018-12-15T09:09:19.039Z,1003.35
2018-12-15T09:10:18.861Z,1003.38
2018-12-15T09:11:17.982Z,1003.39
2018-12-15T09:12:23.582Z,1003.39
2018-12-15T09:13:17.922Z,1003.35
2018-12-15T09:14:18.164Z,1003.32
2018-12-15T09:15:18.571Z,1003.36
2018-12-15T09:16:17.674Z,1003.33
2018-12-15T09:17:17.654Z,1003.37
2018-12-15T09:18:17.629Z,1003.35
2018-12-15T09:19:17.645Z,1003.35
2018-12-15T09:20:17.565Z,1003.34
2018-12-15T09:21:17.535Z,1003.36
2018-12-15T09:22:17.518Z,1003.37
2018-12-15T09:23:17.500Z,1003.32
2018-12-15T09:24:17.531Z,1003.31
2018-12-15T09:25:17.670Z,1003.32
2018-12-15T09:26:17.578Z,1003.33
2018-12-15T09:27:17.383Z,1003.33
2018-12-15T09:28:17.394Z,1003.33
2018-12-15T09:29:17.338Z,1003.32
2018-12-15T09:30:17.796Z,1003.32
2018-12-15T09:31:17.445Z,1003.35
2018-12-15T09:32:17.261Z,1003.31
2018-12-15T09:33:17.274Z,1003.38
2018-12-15T09:34:17.242Z,1003.37
2018-12-15T09:35:17.187Z,1003.35
2018-12-15T09:36:17.168Z,1003.34
2018-12-15T09:37:17.150Z,1003.35
2018-12-15T09:38:17.117Z,1003.37
2018-12-15T09:39:17.088Z,1003.33
2018-12-15T09:40:17.104Z,1003.33
2018-12-15T09:41:17.061Z,1003.36
2018-12-15T09:42:17.017Z,1003.33
2018-12-15T09:43:16.988Z,1003.36
2018-12-15T09:44:16.972Z,1003.36
2018-12-15T09:45:17.312Z,1003.36
2018-12-15T09:46:16.985Z,1003.37
2018-12-15T09:47:16.977Z,1003.38
2018-12-15T09:48:17.231Z,1003.38
2018-12-15T09:49:17.888Z,1003.36
2018-12-15T09:50:17.078Z,1003.39
2018-12-15T09:51:16.915Z,1003.36
2018-12-15T09:52:17.084Z,1003.38
2018-12-15T09:53:17.150Z,1003.37
2018-12-15T09:54:17.264Z,1003.38
2018-12-15T09:55:16.696Z,1003.39
2018-12-15T09:56:16.957Z,1003.39
2018-12-15T09:57:16.648Z,1003.35
2018-12-15T09:58:26.718Z,1003.32
2018-12-15T09:59:16.596Z,1003.37
2018-12-15T10:00:16.571Z,1003.34
2018-12-15T10:01:16.544Z,1003.32
2018-12-15T10:02:17.136Z,1003.38
2018-12-15T10:03:17.068Z,1003.36
2018-12-15T10:04:16.468Z,1003.35
2018-12-15T10:05:16.445Z,1003.34
2018-12-15T10:06:16.417Z,1003.35
2018-12-15T10:07:16.409Z,1003.33
2018-12-15T10:08:17.074Z,1003.34
2018-12-15T10:09:16.363Z,1003.34
2018-12-15T10:10:16.319Z,1003.28
2018-12-15T10:11:16.320Z,1003.24
2018-12-15T10:12:16.278Z,1003.27
2018-12-15T10:13:16.251Z,1003.25
2018-12-15T10:14:16.218Z,1003.21
2018-12-15T10:15:16.196Z,1003.23
2018-12-15T10:16:16.221Z,1003.19
2018-12-15T10:17:16.148Z,1003.19
2018-12-15T10:18:16.129Z,1003.20
2018-12-15T10:19:16.130Z,1003.20
2018-12-15T10:20:16.100Z,1003.21
2018-12-15T10:21:16.049Z,1003.19
2018-12-15T10:22:16.027Z,1003.23
2018-12-15T10:23:15.999Z,1003.25
2018-12-15T10:24:15.976Z,1003.20
2018-12-15T10:25:15.952Z,1003.23
2018-12-15T10:26:15.931Z,1003.21
2018-12-15T10:27:15.932Z,1003.22
2018-12-15T10:28:15.882Z,1003.23
2018-12-15T10:29:15.858Z,1003.23
2018-12-15T10:30:15.829Z,1003.23
2018-12-15T10:31:15.884Z,1003.19
2018-12-15T10:32:15.810Z,1003.23
2018-12-15T10:33:15.754Z,1003.21
2018-12-15T10:34:15.747Z,1003.20
2018-12-15T10:35:15.997Z,1003.19
2018-12-15T10:36:15.712Z,1003.16
2018-12-15T10:37:15.661Z,1003.18
2018-12-15T10:38:15.642Z,1003.15
2018-12-15T10:39:15.635Z,1003.13
2018-12-15T10:40:15.584Z,1003.09
2018-12-15T10:41:15.550Z,1003.13
2018-12-15T10:42:16.223Z,1003.09
2018-12-15T10:43:15.511Z,1003.09
2018-12-15T10:44:15.521Z,1003.11
2018-12-15T10:45:15.468Z,1003.09
2018-12-15T10:46:15.458Z,1003.07
2018-12-15T10:47:15.417Z,1003.06
2018-12-15T10:48:15.464Z,1003.08
2018-12-15T10:49:15.371Z,1003.06
2018-12-15T10:50:15.337Z,1003.07
2018-12-15T10:51:15.308Z,1003.04
2018-12-15T10:52:15.286Z,1003.07
2018-12-15T10:53:15.255Z,1003.02
2018-12-15T10:54:15.246Z,1003.04
2018-12-15T10:55:15.206Z,1003.05
2018-12-15T10:56:15.193Z,1003.03
2018-12-15T10:57:15.171Z,1003.03
2018-12-15T10:58:15.157Z,1002.99
2018-12-15T10:59:15.105Z,1002.98
2018-12-15T11:00:15.093Z,1003.00
2018-12-15T11:01:15.071Z,1003.01
2018-12-15T11:02:15.038Z,1002.99
2018-12-15T11:03:15.013Z,1002.97
2018-12-15T11:04:15.016Z,1002.92
2018-12-15T11:05:14.971Z,1002.90
2018-12-15T11:06:15.013Z,1002.88
2018-12-15T11:07:14.932Z,1002.88
2018-12-15T11:08:14.892Z,1002.88
2018-12-15T11:09:14.894Z,1002.84
2018-12-15T11:10:14.842Z,1002.83
2018-12-15T11:11:14.816Z,1002.79
2018-12-15T11:12:14.827Z,1002.82
2018-12-15T11:13:14.765Z,1002.82
2018-12-15T11:14:14.755Z,1002.78
2018-12-15T11:15:14.717Z,1002.83
2018-12-15T11:16:14.704Z,1002.81
2018-12-15T11:17:14.668Z,1002.84
2018-12-15T11:18:14.656Z,1002.82
2018-12-15T11:19:14.631Z,1002.82
2018-12-15T11:20:14.628Z,1002.77
2018-12-15T11:21:14.576Z,1002.79
2018-12-15T11:22:14.563Z,1002.78
2018-12-15T11:23:14.535Z,1002.73
2018-12-15T11:24:14.528Z,1002.73
2018-12-15T11:25:14.470Z,1002.73
2018-12-15T11:26:14.467Z,1002.72
2018-12-15T11:27:14.422Z,1002.73
2018-12-15T11:28:14.413Z,1002.75
2018-12-15T11:29:14.367Z,1002.71
2018-12-15T11:30:14.346Z,1002.69
2018-12-15T11:31:14.319Z,1002.73
2018-12-15T11:32:14.310Z,1002.72
2018-12-15T11:33:14.275Z,1002.67
2018-12-15T11:34:14.246Z,1002.65
2018-12-15T11:35:14.229Z,1002.66
2018-12-15T11:36:14.198Z,1002.62
2018-12-15T11:37:14.179Z,1002.62
2018-12-15T11:38:14.148Z,1002.58
2018-12-15T11:39:14.139Z,1002.55
2018-12-15T11:40:14.095Z,1002.57
2018-12-15T11:41:14.079Z,1002.56
2018-12-15T11:42:14.056Z,1002.54
2018-12-15T11:43:14.034Z,1002.49
2018-12-15T11:44:14.001Z,1002.53
2018-12-15T11:45:13.982Z,1002.47
2018-12-15T11:46:13.954Z,1002.46
2018-12-15T11:47:13.923Z,1002.44
2018-12-15T11:48:13.907Z,1002.44
2018-12-15T11:49:13.881Z,1002.43
2018-12-15T11:50:13.855Z,1002.42
2018-12-15T11:51:13.827Z,1002.34
2018-12-15T11:52:13.808Z,1002.35
2018-12-15T11:53:13.792Z,1002.33
2018-12-15T11:54:13.759Z,1002.36
2018-12-15T11:55:13.731Z,1002.37
2018-12-15T11:56:13.699Z,1002.35
2018-12-15T11:57:13.684Z,1002.36
2018-12-15T11:58:13.661Z,1002.38
2018-12-15T11:59:13.638Z,1002.35
2018-12-15T12:00:13.603Z,1002.31
2018-12-15T12:01:13.590Z,1002.33
2018-12-15T12:02:13.574Z,1002.30
2018-12-15T12:03:13.536Z,1002.29
2018-12-15T12:04:13.511Z,1002.31
2018-12-15T12:05:13.487Z,1002.31